Time;durP1;ratioP1;P1;durP2;ratioP2;P2;SDS_P1;SDS_P2;PMS_P1;PMS_P2;Temp;Humidity;BMP_temperature;BMP_pressure;BME280_temperature;BME280_humidity;BME280_pressure;Samples;Min_cycle;Max_cycle;Signal;HPM_P1;HPM_P2
2023/10/06 00:01:30;;;;;;;6.77;4.43;;;10.70;99.90;;;;;;4194242;28;20029;-55
2023/10/06 00:03:31;;;;;;;7.57;3.93;;;10.70;99.90;;;;;;4193102;28;20045;-58
2023/10/06 00:05:33;;;;;;;6.63;3.53;;;10.70;99.90;;;;;;4194344;28;20433;-57
2023/10/06 00:07:34;;;;;;;15.93;5.20;;;10.70;99.90;;;;;;4193140;28;20031;-56
2023/10/06 00:09:35;;;;;;;5.50;3.50;;;10.70;99.90;;;;;;4194163;28;20118;-57
2023/10/06 00:11:40;;;;;;;9.23;4.20;;;10.80;99.90;;;;;;4193276;28;20033;-55
2023/10/06 00:13:52;;;;;;;12.50;4.40;;;10.80;99.90;;;;;;4194001;28;20078;-57
2023/10/06 00:15:55;;;;;;;7.13;3.67;;;10.80;99.90;;;;;;4193657;28;20110;-57
2023/10/06 00:17:59;;;;;;;5.73;3.23;;;10.80;99.90;;;;;;4194041;28;20447;-57
2023/10/06 00:20:01;;;;;;;6.10;3.90;;;10.80;99.90;;;;;;4193658;28;20094;-57
2023/10/06 00:22:18;;;;;;;6.33;3.47;;;10.70;99.90;;;;;;4193454;28;20048;-57
2023/10/06 00:24:25;;;;;;;5.57;3.40;;;10.70;99.90;;;;;;4193157;28;20101;-55
2023/10/06 00:26:27;;;;;;;6.17;3.50;;;10.70;99.90;;;;;;4193745;28;20085;-59
2023/10/06 00:28:29;;;;;;;6.03;3.80;;;10.70;99.90;;;;;;4193798;28;20109;-57
2023/10/06 00:30:31;;;;;;;7.03;3.40;;;10.70;99.90;;;;;;4193070;28;20067;-54
2023/10/06 00:32:32;;;;;;;7.77;3.77;;;10.70;99.90;;;;;;4193783;28;20048;-58
2023/10/06 00:34:34;;;;;;;6.20;3.20;;;10.70;99.90;;;;;;4192970;28;20089;-59
2023/10/06 00:36:35;;;;;;;5.37;3.23;;;10.60;99.90;;;;;;4194005;28;20037;-57
2023/10/06 00:38:50;;;;;;;7.47;3.30;;;10.60;99.90;;;;;;4192278;28;20048;-57
2023/10/06 00:40:51;;;;;;;6.83;2.90;;;10.60;99.90;;;;;;4191848;28;20478;-57
2023/10/06 00:42:57;;;;;;;8.13;3.27;;;10.60;99.90;;;;;;4192835;28;20054;-56
2023/10/06 00:44:58;;;;;;;5.47;3.33;;;10.60;99.90;;;;;;4194425;28;20473;-58
2023/10/06 00:46:59;;;;;;;6.63;3.63;;;10.60;99.90;;;;;;4193044;28;20086;-56
2023/10/06 00:49:07;;;;;;;9.33;3.50;;;10.60;99.90;;;;;;4193598;28;20032;-58
2023/10/06 00:51:22;;;;;;;5.43;2.90;;;10.50;99.90;;;;;;4192662;28;20866;-58
2023/10/06 00:53:26;;;;;;;6.53;3.27;;;10.50;99.90;;;;;;4193374;28;20121;-59
2023/10/06 00:55:30;;;;;;;7.20;3.10;;;10.50;99.90;;;;;;4175117;28;20049;-58
2023/10/06 00:57:32;;;;;;;5.20;3.13;;;10.40;99.90;;;;;;4193479;28;20049;-59
2023/10/06 00:59:35;;;;;;;6.40;3.23;;;10.40;99.90;;;;;;4192817;28;20066;-58
2023/10/06 01:01:36;;;;;;;4.57;3.17;;;10.40;99.90;;;;;;4194187;28;20170;-56
2023/10/06 01:04:24;;;;;;;11.63;3.47;;;10.40;99.90;;;;;;4192762;28;20497;-57
2023/10/06 01:06:07;;;;;;;7.57;3.83;;;10.30;99.90;;;;;;4190370;28;20496;-57
2023/10/06 01:08:11;;;;;;;5.17;2.83;;;10.30;99.90;;;;;;4195690;28;20020;-57
2023/10/06 01:10:18;;;;;;;5.00;3.30;;;10.30;99.90;;;;;;4196872;28;20025;-57
2023/10/06 01:12:19;;;;;;;8.47;3.63;;;10.20;99.90;;;;;;4195782;28;20822;-57
2023/10/06 01:14:25;;;;;;;4.77;3.13;;;10.20;99.90;;;;;;4197178;28;20516;-57
2023/10/06 01:16:34;;;;;;;6.03;3.17;;;10.10;99.90;;;;;;4195757;28;20036;-55
2023/10/06 01:18:36;;;;;;;6.83;3.07;;;10.00;99.90;;;;;;4196227;28;20037;-58
2023/10/06 01:20:41;;;;;;;6.07;3.43;;;10.00;99.90;;;;;;4195539;28;20668;-56
2023/10/06 01:22:43;;;;;;;7.13;3.33;;;10.00;99.90;;;;;;4196226;28;20044;-56
2023/10/06 01:24:45;;;;;;;7.73;3.40;;;9.90;99.90;;;;;;4196237;28;20537;-56
2023/10/06 01:26:49;;;;;;;6.37;3.33;;;9.90;99.90;;;;;;4195880;28;20661;-58
2023/10/06 01:28:51;;;;;;;6.03;3.47;;;9.90;99.90;;;;;;4196227;28;20024;-56
2023/10/06 01:30:52;;;;;;;17.10;4.57;;;9.90;99.90;;;;;;4195876;28;20036;-57
2023/10/06 01:32:53;;;;;;;7.37;2.97;;;10.00;99.90;;;;;;4196658;28;20078;-59
2023/10/06 01:34:54;;;;;;;7.13;2.80;;;9.90;99.90;;;;;;4195402;28;20086;-57
2023/10/06 01:36:55;;;;;;;7.53;3.13;;;10.00;99.90;;;;;;4196388;28;20029;-58
2023/10/06 01:39:03;;;;;;;8.20;2.97;;;10.00;99.90;;;;;;4195328;28;20117;-56
2023/10/06 01:41:06;;;;;;;5.83;3.40;;;10.00;99.90;;;;;;4196381;28;20040;-58
2023/10/06 01:43:10;;;;;;;5.20;3.00;;;10.00;99.90;;;;;;4193115;28;20497;-56
2023/10/06 01:45:15;;;;;;;5.70;2.70;;;10.00;99.90;;;;;;4197121;28;20056;-57
2023/10/06 01:47:18;;;;;;;6.50;3.20;;;10.00;99.90;;;;;;4195201;28;20090;-56
2023/10/06 01:49:21;;;;;;;11.07;3.67;;;9.90;99.90;;;;;;4196065;28;20125;-58
2023/10/06 01:51:22;;;;;;;7.77;3.17;;;9.90;99.90;;;;;;4195155;28;20074;-58
2023/10/06 01:53:31;;;;;;;5.87;3.30;;;9.80;99.90;;;;;;4195192;28;20081;-57
2023/10/06 01:55:39;;;;;;;5.63;3.13;;;9.80;99.90;;;;;;4195200;28;20074;-58
2023/10/06 01:57:40;;;;;;;5.90;3.30;;;9.80;99.90;;;;;;4195654;28;20048;-57
2023/10/06 01:59:43;;;;;;;6.20;3.07;;;9.80;99.90;;;;;;4195443;28;20127;-58
2023/10/06 02:01:45;;;;;;;6.07;3.20;;;9.80;99.90;;;;;;4195467;28;20044;-57
2023/10/06 02:03:46;;;;;;;7.30;3.27;;;9.70;99.90;;;;;;4195687;28;20089;-58
2023/10/06 02:05:47;;;;;;;9.00;2.77;;;9.70;99.90;;;;;;4195145;28;20053;-56
2023/10/06 02:07:49;;;;;;;4.50;3.00;;;9.70;99.90;;;;;;4195518;28;20102;-56
2023/10/06 02:09:50;;;;;;;6.23;2.97;;;9.70;99.90;;;;;;4194422;28;20044;-55
2023/10/06 02:11:53;;;;;;;5.47;2.80;;;9.70;99.90;;;;;;4195980;28;20040;-59
2023/10/06 02:13:55;;;;;;;4.40;2.90;;;9.70;99.90;;;;;;4194587;28;20373;-57
2023/10/06 02:15:58;;;;;;;6.33;3.10;;;9.80;99.90;;;;;;4194701;28;20047;-57
2023/10/06 02:18:00;;;;;;;6.63;2.43;;;9.80;99.90;;;;;;4193349;28;20484;-56
2023/10/06 02:20:01;;;;;;;5.17;2.00;;;9.80;99.90;;;;;;4195636;28;20044;-56
2023/10/06 02:22:06;;;;;;;4.97;2.60;;;9.80;99.90;;;;;;4194323;28;20074;-58
2023/10/06 02:24:08;;;;;;;4.90;2.67;;;9.90;99.90;;;;;;4186974;28;20033;-58
2023/10/06 02:26:12;;;;;;;3.80;2.33;;;10.00;99.90;;;;;;4195348;28;20040;-58
2023/10/06 02:28:14;;;;;;;5.07;2.07;;;10.00;99.90;;;;;;4195580;28;20024;-58
2023/10/06 02:30:19;;;;;;;3.57;2.10;;;10.10;99.90;;;;;;4194703;28;20097;-57
2023/10/06 02:32:21;;;;;;;3.87;2.50;;;10.10;99.90;;;;;;4194397;28;20044;-59
2023/10/06 02:34:28;;;;;;;6.30;2.07;;;10.20;99.90;;;;;;4194565;28;20021;-56
2023/10/06 02:36:31;;;;;;;4.00;2.00;;;10.30;99.90;;;;;;4195591;28;20114;-57
2023/10/06 02:38:41;;;;;;;4.37;2.37;;;10.30;99.90;;;;;;4194206;28;20082;-58
2023/10/06 02:40:45;;;;;;;3.72;2.13;;;10.30;99.90;;;;;;4195220;28;20094;-58
2023/10/06 02:42:51;;;;;;;4.07;2.30;;;10.30;99.90;;;;;;4194399;28;20033;-59
2023/10/06 02:44:53;;;;;;;5.07;2.43;;;10.30;99.90;;;;;;4195031;28;20122;-58
2023/10/06 02:46:55;;;;;;;4.83;2.00;;;10.30;99.90;;;;;;4194713;28;20036;-57
2023/10/06 02:48:56;;;;;;;3.70;2.00;;;10.30;99.90;;;;;;4194080;28;20025;-57
2023/10/06 02:50:57;;;;;;;3.07;2.03;;;10.30;99.90;;;;;;4194736;28;20082;-55
2023/10/06 02:52:59;;;;;;;3.93;1.97;;;10.20;99.90;;;;;;4193803;28;20036;-57
2023/10/06 02:57:04;;;;;;;6.43;2.10;;;10.20;99.90;;;;;;4193738;28;20519;-58
2023/10/06 02:59:21;;;;;;;3.57;1.93;;;10.20;99.90;;;;;;4195669;28;20093;-57
2023/10/06 03:01:22;;;;;;;5.67;2.37;;;10.20;99.90;;;;;;4193985;28;20044;-59
2023/10/06 03:03:27;;;;;;;5.77;2.00;;;10.20;99.90;;;;;;4195250;28;20481;-59
2023/10/06 03:05:32;;;;;;;3.07;1.70;;;10.10;99.90;;;;;;4193769;28;20113;-54
2023/10/06 03:07:34;;;;;;;4.50;2.17;;;10.10;99.90;;;;;;4194872;28;20086;-57
2023/10/06 03:09:44;;;;;;;5.63;2.33;;;10.10;99.90;;;;;;4193819;28;20044;-58
2023/10/06 03:11:49;;;;;;;4.78;2.42;;;10.10;99.90;;;;;;4178571;28;20482;-56
2023/10/06 03:13:54;;;;;;;5.23;2.30;;;10.10;99.90;;;;;;4193822;28;20307;-57
2023/10/06 03:15:55;;;;;;;2.70;1.57;;;10.10;99.90;;;;;;4195202;28;20025;-57
2023/10/06 03:17:58;;;;;;;10.17;2.20;;;10.10;99.90;;;;;;4193400;28;20041;-58
2023/10/06 03:20:10;;;;;;;3.10;1.93;;;10.10;99.90;;;;;;4194682;28;20098;-58
2023/10/06 03:22:13;;;;;;;4.90;2.00;;;10.10;99.90;;;;;;4193642;28;20082;-58
2023/10/06 03:24:25;;;;;;;3.97;2.37;;;10.10;99.90;;;;;;4193995;28;20045;-62
2023/10/06 03:26:33;;;;;;;5.40;3.10;;;10.10;99.90;;;;;;4192693;28;20105;-58
2023/10/06 03:28:37;;;;;;;5.60;2.23;;;10.00;99.90;;;;;;4194616;28;20451;-59
2023/10/06 03:30:41;;;;;;;3.83;2.10;;;10.00;99.90;;;;;;4193595;28;20029;-61
2023/10/06 03:32:43;;;;;;;5.63;3.03;;;10.00;99.90;;;;;;4194645;28;20040;-59
2023/10/06 03:34:47;;;;;;;4.50;2.73;;;10.00;99.90;;;;;;4192921;28;20178;-61
2023/10/06 03:36:57;;;;;;;3.70;2.40;;;10.00;99.90;;;;;;4194013;28;20025;-61
2023/10/06 03:39:06;;;;;;;7.07;2.93;;;9.90;99.90;;;;;;4194149;28;20408;-59
2023/10/06 03:41:24;;;;;;;5.20;2.70;;;9.90;99.90;;;;;;4194200;28;20044;-60
2023/10/06 03:45:47;;;;;;;6.00;2.65;;;9.80;99.90;;;;;;4196249;28;20032;-57
2023/10/06 03:47:49;;;;;;;3.93;2.40;;;9.70;99.90;;;;;;4193652;28;20021;-61
2023/10/06 03:49:51;;;;;;;5.27;2.50;;;9.70;99.90;;;;;;4193959;28;20033;-63
2023/10/06 03:51:55;;;;;;;5.13;2.40;;;9.70;99.90;;;;;;4193673;28;20028;-58
2023/10/06 03:53:57;;;;;;;6.20;3.00;;;9.70;99.90;;;;;;4193052;28;20058;-57
2023/10/06 03:55:58;;;;;;;7.17;2.50;;;9.60;99.90;;;;;;4193021;28;20126;-61
2023/10/06 03:57:59;;;;;;;4.60;2.57;;;9.60;99.90;;;;;;4193428;28;20049;-58
2023/10/06 04:00:00;;;;;;;4.67;2.33;;;9.60;99.90;;;;;;4194392;28;20078;-59
2023/10/06 04:02:03;;;;;;;7.07;2.90;;;9.60;99.90;;;;;;4192623;28;20807;-59
2023/10/06 04:04:05;;;;;;;2.73;2.00;;;9.60;99.90;;;;;;4194276;28;20113;-58
2023/10/06 04:06:12;;;;;;;7.07;2.83;;;9.60;99.90;;;;;;4192855;28;20028;-59
2023/10/06 04:08:18;;;;;;;5.33;2.67;;;9.60;99.90;;;;;;4193932;28;20094;-58
2023/10/06 04:10:26;;;;;;;4.33;2.50;;;9.60;99.90;;;;;;4192254;28;20045;-58
2023/10/06 04:12:27;;;;;;;7.07;2.40;;;9.60;99.90;;;;;;4194010;28;20052;-55
2023/10/06 04:14:31;;;;;;;5.47;2.50;;;9.60;99.90;;;;;;4193355;28;20485;-59
2023/10/06 04:16:42;;;;;;;6.23;2.30;;;9.60;99.90;;;;;;4194192;28;20558;-60
2023/10/06 04:18:47;;;;;;;3.67;2.20;;;9.60;99.90;;;;;;4191064;28;20075;-59
2023/10/06 04:20:50;;;;;;;13.37;2.63;;;9.60;99.90;;;;;;4193441;28;20114;-59
2023/10/06 04:22:51;;;;;;;4.70;2.23;;;9.60;99.90;;;;;;4192539;28;20036;-58
2023/10/06 04:24:52;;;;;;;5.87;2.20;;;9.60;99.90;;;;;;4192376;28;20066;-58
2023/10/06 04:26:54;;;;;;;4.40;2.53;;;9.60;99.90;;;;;;4192046;28;20097;-59
2023/10/06 04:28:57;;;;;;;5.07;2.37;;;9.60;99.90;;;;;;4192778;28;20052;-59
2023/10/06 04:31:00;;;;;;;10.93;2.90;;;9.60;99.90;;;;;;4192824;28;20029;-59
2023/10/06 04:33:05;;;;;;;5.73;2.53;;;9.50;99.90;;;;;;4193340;28;20101;-60
2023/10/06 04:35:19;;;;;;;4.77;2.80;;;9.50;99.90;;;;;;4193268;28;20037;-58
2023/10/06 04:37:20;;;;;;;6.57;2.50;;;9.50;99.90;;;;;;4192879;28;20062;-61
2023/10/06 04:39:21;;;;;;;6.10;2.47;;;9.50;99.90;;;;;;4191054;28;20079;-61
2023/10/06 04:41:22;;;;;;;4.80;2.80;;;9.50;99.90;;;;;;4192518;28;20419;-60
2023/10/06 04:43:24;;;;;;;6.83;2.70;;;9.50;99.90;;;;;;4193662;28;20029;-61
2023/10/06 04:45:25;;;;;;;4.20;2.80;;;9.50;99.90;;;;;;4192719;28;20052;-58
2023/10/06 04:47:31;;;;;;;5.37;2.37;;;9.50;99.90;;;;;;4194027;28;20052;-60
2023/10/06 04:49:32;;;;;;;7.83;3.07;;;9.50;99.90;;;;;;4191979;28;20044;-59
2023/10/06 04:51:34;;;;;;;10.10;5.00;;;9.60;99.90;;;;;;4193789;28;20510;-60
2023/10/06 04:53:36;;;;;;;9.13;4.53;;;9.60;99.90;;;;;;4191769;28;20112;-58
2023/10/06 04:55:40;;;;;;;5.57;2.97;;;9.60;99.90;;;;;;4192922;28;20101;-59
2023/10/06 04:57:41;;;;;;;7.43;2.50;;;9.60;99.90;;;;;;4192329;28;20037;-62
2023/10/06 04:59:42;;;;;;;7.53;2.33;;;9.60;99.90;;;;;;4193520;28;20082;-60
2023/10/06 05:01:45;;;;;;;10.60;3.57;;;9.70;99.90;;;;;;4192130;28;20388;-58
2023/10/06 05:03:47;;;;;;;3.53;2.03;;;9.80;99.90;;;;;;4193519;28;20086;-58
2023/10/06 05:05:50;;;;;;;7.20;2.70;;;9.80;99.90;;;;;;4192825;28;20109;-53
2023/10/06 05:07:51;;;;;;;7.30;2.57;;;9.80;99.90;;;;;;4192117;28;20045;-61
2023/10/06 05:09:55;;;;;;;4.47;2.60;;;9.90;99.90;;;;;;4193123;28;20021;-61
2023/10/06 05:11:57;;;;;;;6.90;2.30;;;9.90;99.90;;;;;;4192841;28;20045;-56
2023/10/06 05:13:58;;;;;;;4.10;2.57;;;10.00;99.90;;;;;;4193704;28;20044;-58
2023/10/06 05:16:01;;;;;;;5.07;2.60;;;10.40;99.90;;;;;;4192748;28;20099;-57
2023/10/06 05:18:05;;;;;;;8.67;2.93;;;10.80;99.90;;;;;;4193119;28;20041;-57
2023/10/06 05:20:19;;;;;;;10.47;2.67;;;11.20;99.90;;;;;;4192175;28;20094;-57
2023/10/06 05:22:21;;;;;;;4.93;2.43;;;11.40;99.90;;;;;;4193546;28;20090;-59
2023/10/06 05:24:22;;;;;;;5.83;2.80;;;11.80;99.90;;;;;;4192478;28;20037;-59
2023/10/06 05:26:24;;;;;;;7.07;3.00;;;12.10;99.90;;;;;;4193562;28;20174;-58
2023/10/06 05:28:26;;;;;;;10.80;3.07;;;12.40;99.90;;;;;;4192469;28;20049;-61
2023/10/06 05:30:28;;;;;;;6.37;2.73;;;12.80;99.90;;;;;;4193402;28;20098;-61
2023/10/06 05:32:30;;;;;;;6.10;2.50;;;13.00;99.90;;;;;;4192492;28;20075;-57
2023/10/06 05:34:32;;;;;;;7.30;2.70;;;13.40;99.90;;;;;;4193588;28;20049;-60
2023/10/06 05:36:35;;;;;;;10.57;3.90;;;13.90;99.90;;;;;;4191987;28;20086;-56
2023/10/06 05:38:37;;;;;;;8.70;3.43;;;14.40;99.90;;;;;;4193291;28;20032;-59
2023/10/06 05:40:44;;;;;;;5.65;2.78;;;14.70;99.90;;;;;;4192112;28;20024;-59
2023/10/06 05:42:52;;;;;;;6.97;2.28;;;15.10;99.90;;;;;;4193185;28;20029;-60
2023/10/06 05:44:55;;;;;;;8.35;2.72;;;15.20;99.90;;;;;;4192828;28;20468;-60
2023/10/06 05:46:57;;;;;;;3.78;2.22;;;15.10;99.90;;;;;;4193041;28;20068;-60
2023/10/06 05:49:00;;;;;;;6.90;2.15;;;15.40;99.90;;;;;;4192400;28;20094;-59
2023/10/06 05:51:05;;;;;;;9.43;2.47;;;15.80;99.90;;;;;;4192828;28;20040;-60
2023/10/06 05:53:12;;;;;;;9.38;2.35;;;16.10;99.90;;;;;;4195513;28;20644;-59
2023/10/06 05:55:16;;;;;;;6.93;2.40;;;16.30;99.90;;;;;;4195473;28;20077;-62
2023/10/06 05:57:18;;;;;;;4.80;2.05;;;16.30;99.90;;;;;;4195755;28;20032;-60
2023/10/06 05:59:21;;;;;;;5.85;3.00;;;16.10;99.90;;;;;;4195113;28;20020;-61
2023/10/06 06:01:28;;;;;;;5.15;2.40;;;15.80;99.90;;;;;;4195972;28;20044;-57
2023/10/06 06:03:30;;;;;;;4.75;1.92;;;15.60;99.90;;;;;;4193481;28;20475;-58
2023/10/06 06:05:33;;;;;;;6.57;2.03;;;15.40;99.90;;;;;;4195936;28;20498;-60
2023/10/06 06:07:34;;;;;;;6.70;2.08;;;15.20;99.90;;;;;;4193209;28;20036;-60
2023/10/06 06:09:36;;;;;;;6.47;2.42;;;15.20;99.90;;;;;;4195687;28;20033;-59
2023/10/06 06:11:37;;;;;;;4.63;1.92;;;15.30;99.90;;;;;;4194733;28;20493;-59
2023/10/06 06:13:38;;;;;;;6.18;2.47;;;15.30;99.90;;;;;;4195891;28;20057;-57
2023/10/06 06:15:40;;;;;;;11.70;2.42;;;15.20;99.90;;;;;;4193202;28;21078;-59
2023/10/06 06:17:41;;;;;;;5.22;2.53;;;15.30;99.90;;;;;;4195586;28;20102;-59
2023/10/06 06:19:43;;;;;;;5.72;2.58;;;15.70;99.90;;;;;;4194620;28;20533;-62
2023/10/06 06:21:46;;;;;;;5.90;2.42;;;15.90;99.90;;;;;;4195305;28;20066;-62
2023/10/06 06:23:49;;;;;;;7.05;2.20;;;16.30;99.90;;;;;;4194171;28;20102;-58
2023/10/06 06:25:51;;;;;;;3.90;2.35;;;16.40;99.90;;;;;;4195404;28;20057;-59
2023/10/06 06:27:54;;;;;;;5.75;2.65;;;16.40;99.90;;;;;;4194911;28;20074;-60
2023/10/06 06:29:55;;;;;;;4.60;2.38;;;16.50;99.90;;;;;;4195283;28;20028;-60
2023/10/06 06:31:56;;;;;;;5.25;2.30;;;16.80;99.90;;;;;;4195453;28;20508;-61
2023/10/06 06:33:57;;;;;;;6.20;1.90;;;16.80;99.90;;;;;;4194636;28;20025;-59
2023/10/06 06:36:00;;;;;;;5.93;2.60;;;16.70;99.90;;;;;;4195361;28;20029;-59
2023/10/06 06:38:05;;;;;;;8.38;2.83;;;16.90;99.90;;;;;;4194601;28;20033;-59
2023/10/06 06:40:10;;;;;;;4.82;1.77;;;16.60;99.90;;;;;;4195587;28;20044;-60
2023/10/06 06:42:12;;;;;;;4.68;2.15;;;16.40;99.90;;;;;;4192631;28;20107;-58
2023/10/06 06:44:13;;;;;;;5.95;2.70;;;16.20;99.90;;;;;;4195691;28;20106;-60
2023/10/06 06:46:16;;;;;;;4.88;2.20;;;16.30;99.90;;;;;;4194724;28;20177;-61
2023/10/06 06:48:19;;;;;;;7.30;2.50;;;16.20;99.90;;;;;;4195727;28;20044;-59
2023/10/06 06:50:21;;;;;;;3.95;2.25;;;16.40;99.90;;;;;;4194305;28;20102;-60
2023/10/06 06:52:22;;;;;;;6.30;2.50;;;16.60;99.90;;;;;;4195188;28;20090;-62
2023/10/06 06:54:23;;;;;;;4.30;2.15;;;16.80;99.90;;;;;;4194154;28;20086;-61
2023/10/06 06:56:28;;;;;;;4.13;1.88;;;17.00;99.90;;;;;;4195518;28;20036;-59
2023/10/06 06:58:29;;;;;;;6.47;2.13;;;17.00;99.90;;;;;;4194174;28;20012;-59
2023/10/06 07:00:35;;;;;;;5.00;2.28;;;17.00;99.90;;;;;;4195019;28;20041;-61
2023/10/06 07:02:36;;;;;;;8.05;2.47;;;17.00;99.90;;;;;;4193925;28;20082;-61
2023/10/06 07:04:38;;;;;;;3.90;2.33;;;17.00;99.90;;;;;;4192707;28;20819;-60
2023/10/06 07:06:40;;;;;;;4.90;2.75;;;17.00;99.90;;;;;;4194367;28;20049;-59
2023/10/06 07:08:42;;;;;;;11.57;4.43;;;17.10;99.90;;;;;;4193751;28;20461;-59
2023/10/06 07:10:52;;;;;;;4.93;2.67;;;17.10;99.90;;;;;;4194592;28;20046;-59
2023/10/06 07:12:54;;;;;;;6.82;2.35;;;17.20;99.90;;;;;;4193732;28;20459;-58
2023/10/06 07:14:56;;;;;;;4.85;2.70;;;17.20;99.90;;;;;;4195372;28;20067;-62
2023/10/06 07:16:57;;;;;;;4.25;2.20;;;17.30;99.90;;;;;;4193550;28;20089;-61
2023/10/06 07:18:59;;;;;;;4.50;2.15;;;17.10;99.90;;;;;;4194864;28;20066;-58
2023/10/06 07:21:06;;;;;;;3.53;2.03;;;17.00;99.90;;;;;;4193465;28;20131;-62
2023/10/06 07:23:07;;;;;;;8.60;2.90;;;16.90;99.90;;;;;;4194378;28;20070;-58
2023/10/06 07:25:10;;;;;;;3.85;2.42;;;16.90;99.90;;;;;;4193654;28;20033;-61
2023/10/06 07:27:11;;;;;;;8.50;3.20;;;16.90;99.90;;;;;;4194911;28;20061;-61
2023/10/06 07:29:14;;;;;;;7.22;2.90;;;17.10;99.90;;;;;;4193303;28;20074;-58
2023/10/06 07:31:16;;;;;;;7.18;2.53;;;17.20;99.90;;;;;;4194901;28;20472;-59
2023/10/06 07:33:17;;;;;;;7.65;2.08;;;17.20;99.90;;;;;;4193554;28;20429;-59
2023/10/06 07:35:20;;;;;;;7.43;2.38;;;17.20;99.90;;;;;;4194332;28;20765;-59
2023/10/06 07:37:21;;;;;;;5.30;2.40;;;17.40;99.90;;;;;;4193718;28;20124;-59
2023/10/06 07:39:23;;;;;;;11.02;3.67;;;17.50;99.90;;;;;;4194053;28;20398;-59
2023/10/06 07:41:24;;;;;;;9.88;2.67;;;17.70;99.90;;;;;;4193869;28;20095;-60
2023/10/06 07:43:26;;;;;;;11.75;4.45;;;17.90;99.90;;;;;;4193395;28;20040;-64
2023/10/06 07:45:27;;;;;;;13.52;5.90;;;17.90;99.90;;;;;;4194425;28;20115;-62
2023/10/06 07:47:31;;;;;;;10.98;3.53;;;17.90;99.90;;;;;;4193019;28;20024;-60
2023/10/06 07:49:34;;;;;;;7.30;3.35;;;17.70;99.90;;;;;;4194234;28;20036;-60
2023/10/06 07:51:35;;;;;;;8.15;3.53;;;17.50;99.90;;;;;;4193288;28;20036;-61
2023/10/06 07:53:38;;;;;;;8.55;2.97;;;17.40;99.90;;;;;;4194358;28;20506;-61
2023/10/06 07:55:40;;;;;;;6.35;2.45;;;17.40;99.90;;;;;;4193201;28;20025;-60
2023/10/06 07:57:45;;;;;;;7.93;2.60;;;17.30;99.90;;;;;;4194185;28;20458;-62
2023/10/06 07:59:46;;;;;;;4.80;2.50;;;17.20;99.90;;;;;;4193136;28;20082;-61
2023/10/06 08:01:48;;;;;;;6.30;2.33;;;17.10;99.90;;;;;;4194276;28;20040;-60
2023/10/06 08:03:50;;;;;;;6.70;2.33;;;17.10;99.90;;;;;;4192982;28;20146;-60
2023/10/06 08:05:51;;;;;;;7.35;3.78;;;17.20;99.90;;;;;;4194305;28;20045;-62
2023/10/06 08:07:52;;;;;;;7.18;3.05;;;17.30;99.90;;;;;;4193266;28;20113;-61
2023/10/06 08:10:03;;;;;;;8.98;3.40;;;17.50;99.90;;;;;;4193788;28;20041;-59
2023/10/06 08:12:08;;;;;;;;;;;17.60;99.90;;;;;;4193537;28;20062;-60
2023/10/06 08:14:11;;;;;;;9.48;3.33;;;17.60;99.90;;;;;;4193926;28;20046;-60
2023/10/06 08:16:12;;;;;;;6.05;2.80;;;17.60;99.90;;;;;;4193654;28;20059;-62
2023/10/06 08:18:15;;;;;;;6.43;2.35;;;17.60;99.90;;;;;;4193351;28;20040;-63
2023/10/06 08:20:17;;;;;;;5.45;2.78;;;17.60;99.90;;;;;;4191496;28;20037;-61
2023/10/06 08:22:18;;;;;;;8.85;2.47;;;17.80;99.90;;;;;;4192993;28;20052;-65
2023/10/06 08:24:19;;;;;;;6.95;2.63;;;17.90;99.90;;;;;;4193759;28;20044;-59
2023/10/06 08:26:21;;;;;;;9.23;2.70;;;18.00;99.90;;;;;;4192542;28;20408;-62
2023/10/06 08:28:24;;;;;;;5.75;3.05;;;18.10;99.90;;;;;;4193948;28;20056;-61
2023/10/06 08:30:26;;;;;;;5.72;2.28;;;18.20;99.90;;;;;;4192948;28;20102;-59
2023/10/06 08:32:27;;;;;;;5.30;2.92;;;18.30;99.90;;;;;;4193913;28;21446;-61
2023/10/06 08:34:30;;;;;;;11.40;3.25;;;18.70;99.90;;;;;;4192529;28;20040;-62
2023/10/06 08:36:37;;;;;;;3.95;2.38;;;19.10;99.90;;;;;;4193922;28;20045;-59
2023/10/06 08:38:39;;;;;;;6.65;2.60;;;19.30;99.90;;;;;;4192696;28;20070;-59
2023/10/06 08:40:44;;;;;;;8.68;2.88;;;19.40;99.90;;;;;;4194046;28;20114;-62
2023/10/06 08:42:51;;;;;;;4.40;2.22;;;19.80;99.90;;;;;;4192811;28;20102;-61
2023/10/06 08:44:52;;;;;;;8.45;2.70;;;20.00;99.90;;;;;;4194208;28;20044;-61
2023/10/06 08:46:53;;;;;;;5.68;2.05;;;20.00;99.90;;;;;;4192403;28;20036;-62
2023/10/06 08:48:56;;;;;;;5.90;2.28;;;20.30;99.90;;;;;;4193712;28;20037;-63
2023/10/06 08:50:59;;;;;;;5.75;2.63;;;20.40;99.90;;;;;;4192963;28;20634;-62
2023/10/06 08:53:04;;;;;;;6.97;2.25;;;20.40;99.90;;;;;;4193140;28;20032;-63
2023/10/06 08:55:06;;;;;;;8.07;2.33;;;20.30;99.90;;;;;;4193111;28;20033;-62
2023/10/06 08:57:11;;;;;;;4.68;2.33;;;20.00;99.90;;;;;;4193643;28;20435;-60
2023/10/06 08:59:16;;;;;;;4.60;2.10;;;19.80;99.90;;;;;;4193059;28;20036;-62
2023/10/06 09:01:18;;;;;;;7.03;2.35;;;19.60;99.90;;;;;;4192662;28;20090;-59
2023/10/06 09:03:20;;;;;;;6.13;2.63;;;19.40;99.90;;;;;;4193305;28;20127;-61
2023/10/06 09:05:22;;;;;;;12.27;1.85;;;19.50;99.90;;;;;;4192451;28;20048;-60
2023/10/06 09:07:23;;;;;;;9.57;1.88;;;19.60;99.90;;;;;;4193640;28;20098;-62
2023/10/06 09:09:29;;;;;;;6.93;3.38;;;19.60;99.90;;;;;;4192328;28;20033;-61
2023/10/06 09:11:40;;;;;;;5.25;1.95;;;19.60;99.90;;;;;;4192307;28;20133;-61
2023/10/06 09:13:42;;;;;;;4.88;1.70;;;19.40;99.50;;;;;;4192294;28;20911;-61
2023/10/06 09:15:59;;;;;;;2.80;2.03;;;19.20;99.90;;;;;;4194271;28;20071;-60
2023/10/06 09:18:02;;;;;;;8.98;2.45;;;19.10;99.80;;;;;;4191917;28;20110;-59
2023/10/06 09:20:04;;;;;;;8.05;2.45;;;19.00;99.80;;;;;;4193633;28;20094;-60
2023/10/06 09:22:06;;;;;;;5.13;1.65;;;18.80;99.60;;;;;;4192517;28;20090;-62
2023/10/06 09:24:21;;;;;;;6.60;2.35;;;18.70;99.90;;;;;;4193521;28;20090;-62
2023/10/06 09:26:27;;;;;;;4.93;2.42;;;18.70;99.60;;;;;;4192911;28;20033;-62
2023/10/06 09:28:30;;;;;;;4.45;2.03;;;18.70;99.90;;;;;;4196537;28;20032;-59
2023/10/06 09:30:49;;;;;;;4.95;1.83;;;18.60;99.70;;;;;;4195591;28;20423;-58
2023/10/06 09:33:02;;;;;;;3.83;1.88;;;18.80;99.60;;;;;;4196678;28;20036;-60
2023/10/06 09:35:20;;;;;;;4.10;1.98;;;18.90;99.70;;;;;;4195221;28;20086;-59
2023/10/06 09:37:21;;;;;;;7.07;2.13;;;19.00;99.60;;;;;;4196597;28;20040;-58
2023/10/06 09:39:37;;;;;;;9.85;2.88;;;19.00;99.60;;;;;;4194905;28;20032;-58
2023/10/06 09:41:39;;;;;;;11.82;2.92;;;18.90;99.40;;;;;;4196501;28;20052;-60
2023/10/06 09:43:40;;;;;;;6.25;2.42;;;18.70;99.90;;;;;;4194804;28;20094;-59
2023/10/06 09:45:43;;;;;;;6.80;2.35;;;18.60;99.90;;;;;;4196920;28;20109;-58
2023/10/06 09:47:51;;;;;;;6.57;2.20;;;18.60;99.90;;;;;;4194986;28;20609;-61
2023/10/06 09:49:52;;;;;;;6.75;2.40;;;18.60;99.90;;;;;;4196288;28;20109;-58
2023/10/06 09:52:01;;;;;;;6.55;2.08;;;18.50;99.90;;;;;;4195278;28;20062;-61
2023/10/06 09:54:05;;;;;;;4.57;2.00;;;18.50;99.90;;;;;;4196314;28;20041;-60
2023/10/06 09:56:09;;;;;;;6.93;2.08;;;18.20;99.70;;;;;;4194981;28;20078;-60
2023/10/06 09:58:13;;;;;;;7.32;1.98;;;18.20;99.90;;;;;;4196222;28;20071;-57
2023/10/06 10:00:21;;;;;;;4.97;2.25;;;18.20;99.90;;;;;;4194927;28;20071;-61
2023/10/06 10:02:23;;;;;;;4.25;1.90;;;18.10;99.90;;;;;;4196040;28;20090;-60
2023/10/06 10:04:29;;;;;;;8.90;2.10;;;18.00;99.90;;;;;;4195088;28;20468;-58
2023/10/06 10:06:32;;;;;;;4.80;1.88;;;18.10;99.90;;;;;;4195601;28;20056;-56
2023/10/06 10:08:35;;;;;;;5.03;2.22;;;18.30;99.90;;;;;;4195261;28;20017;-57
2023/10/06 10:10:39;;;;;;;10.48;3.03;;;18.30;99.90;;;;;;4195485;28;20481;-60
2023/10/06 10:13:08;;;;;;;5.57;1.85;;;18.30;99.90;;;;;;4195400;28;20048;-58
2023/10/06 10:15:28;;;;;;;4.55;2.10;;;18.40;99.90;;;;;;4195306;28;20082;-61
2023/10/06 10:17:48;;;;;;;9.15;2.53;;;18.50;99.90;;;;;;4195066;28;20060;-57
2023/10/06 10:19:51;;;;;;;4.10;1.85;;;18.50;99.70;;;;;;4195863;28;20082;-59
2023/10/06 10:21:54;;;;;;;6.85;1.90;;;18.60;99.80;;;;;;4194476;28;20021;-58
2023/10/06 10:23:56;;;;;;;5.93;2.22;;;18.60;99.80;;;;;;4195361;28;20058;-59
2023/10/06 10:26:23;;;;;;;7.38;1.83;;;18.60;99.80;;;;;;4194941;28;20025;-59
2023/10/06 10:28:27;;;;;;;3.63;1.73;;;18.70;99.40;;;;;;4195259;28;20032;-56
2023/10/06 10:30:47;;;;;;;4.60;1.80;;;18.70;99.60;;;;;;4194968;28;20054;-60
2023/10/06 10:32:52;;;;;;;11.43;2.33;;;18.70;99.20;;;;;;4195610;28;20106;-59
2023/10/06 10:35:15;;;;;;;2.72;1.52;;;18.70;99.40;;;;;;4194243;28;20058;-59
2023/10/06 10:37:16;;;;;;;5.25;1.90;;;18.70;99.10;;;;;;4194888;28;20066;-57
2023/10/06 10:39:22;;;;;;;4.30;1.45;;;18.80;99.50;;;;;;4193739;28;20435;-60
2023/10/06 10:41:27;;;;;;;5.60;2.45;;;18.80;99.20;;;;;;4195579;28;20485;-58
2023/10/06 10:43:28;;;;;;;6.15;1.55;;;18.80;98.90;;;;;;4194735;28;20028;-59
2023/10/06 10:45:35;;;;;;;4.15;1.75;;;18.80;98.90;;;;;;4195317;28;20063;-60
2023/10/06 10:47:37;;;;;;;4.05;1.95;;;18.80;98.90;;;;;;4194920;28;20056;-60
2023/10/06 10:49:38;;;;;;;7.20;2.15;;;18.80;98.80;;;;;;4194778;28;20036;-62
2023/10/06 10:51:55;;;;;;;4.88;2.70;;;18.90;98.80;;;;;;4194993;28;20041;-55